sensor_id;sensor_type;location;lat;lon;timestamp;temperature;humidity
4324;DHT22;2175;51.018;6.994;2022-12-18T00:00:42;-5.50;99.90
4324;DHT22;2175;51.018;6.994;2022-12-18T00:03:08;-5.40;99.90
4324;DHT22;2175;51.018;6.994;2022-12-18T00:05:34;-5.40;99.90
4324;DHT22;2175;51.018;6.994;2022-12-18T00:08:00;-5.40;99.90
4324;DHT22;2175;51.018;6.994;2022-12-18T00:10:27;-5.30;99.90
4324;DHT22;2175;51.018;6.994;2022-12-18T00:12:53;-5.20;99.90
4324;DHT22;2175;51.018;6.994;2022-12-18T00:15:19;-5.30;99.90
4324;DHT22;2175;51.018;6.994;2022-12-18T00:17:44;-5.30;99.90
4324;DHT22;2175;51.018;6.994;2022-12-18T00:20:10;-5.30;99.90
4324;DHT22;2175;51.018;6.994;2022-12-18T00:22:36;-5.30;99.90
4324;DHT22;2175;51.018;6.994;2022-12-18T00:25:01;-5.20;99.90
4324;DHT22;2175;51.018;6.994;2022-12-18T00:27:27;-5.10;99.90
4324;DHT22;2175;51.018;6.994;2022-12-18T00:29:53;-5.10;99.90
4324;DHT22;2175;51.018;6.994;2022-12-18T00:32:18;-5.10;99.90
4324;DHT22;2175;51.018;6.994;2022-12-18T00:34:44;-5.10;99.90
4324;DHT22;2175;51.018;6.994;2022-12-18T00:37:09;-5.20;99.90
4324;DHT22;2175;51.018;6.994;2022-12-18T00:39:35;-5.20;99.90
4324;DHT22;2175;51.018;6.994;2022-12-18T00:42:00;-5.30;99.90
4324;DHT22;2175;51.018;6.994;2022-12-18T00:44:45;-5.30;99.90
4324;DHT22;2175;51.018;6.994;2022-12-18T00:47:10;-5.40;99.90
4324;DHT22;2175;51.018;6.994;2022-12-18T00:49:36;-5.30;99.90
4324;DHT22;2175;51.018;6.994;2022-12-18T00:52:01;-5.20;99.90
4324;DHT22;2175;51.018;6.994;2022-12-18T00:54:27;-5.10;99.90
4324;DHT22;2175;51.018;6.994;2022-12-18T00:56:53;-5.00;99.90
4324;DHT22;2175;51.018;6.994;2022-12-18T00:59:20;-5.00;99.90
4324;DHT22;2175;51.018;6.994;2022-12-18T01:01:46;-5.10;99.90
4324;DHT22;2175;51.018;6.994;2022-12-18T01:04:12;-5.10;99.90
4324;DHT22;2175;51.018;6.994;2022-12-18T01:06:37;-5.00;99.90
4324;DHT22;2175;51.018;6.994;2022-12-18T01:09:03;-5.00;99.90
4324;DHT22;2175;51.018;6.994;2022-12-18T01:11:29;-5.00;99.90
4324;DHT22;2175;51.018;6.994;2022-12-18T01:13:55;-5.00;99.90
4324;DHT22;2175;51.018;6.994;2022-12-18T01:16:21;-5.10;99.90
4324;DHT22;2175;51.018;6.994;2022-12-18T01:18:47;-5.10;99.90
4324;DHT22;2175;51.018;6.994;2022-12-18T01:21:15;-5.10;99.90
4324;DHT22;2175;51.018;6.994;2022-12-18T01:23:41;-5.10;99.90
4324;DHT22;2175;51.018;6.994;2022-12-18T01:26:13;-5.20;99.90
4324;DHT22;2175;51.018;6.994;2022-12-18T01:28:39;-5.10;99.90
4324;DHT22;2175;51.018;6.994;2022-12-18T01:31:21;-4.90;99.90
4324;DHT22;2175;51.018;6.994;2022-12-18T01:33:47;-5.00;99.90
4324;DHT22;2175;51.018;6.994;2022-12-18T01:36:19;-5.10;99.90
4324;DHT22;2175;51.018;6.994;2022-12-18T01:38:46;-5.10;99.90
4324;DHT22;2175;51.018;6.994;2022-12-18T01:41:12;-5.10;99.90
4324;DHT22;2175;51.018;6.994;2022-12-18T01:46:07;-5.10;99.90
4324;DHT22;2175;51.018;6.994;2022-12-18T01:48:33;-5.00;99.90
4324;DHT22;2175;51.018;6.994;2022-12-18T01:51:00;-5.00;99.90
4324;DHT22;2175;51.018;6.994;2022-12-18T01:53:26;-4.90;99.90
4324;DHT22;2175;51.018;6.994;2022-12-18T01:55:53;-5.00;99.90
4324;DHT22;2175;51.018;6.994;2022-12-18T01:58:24;-5.00;99.90
4324;DHT22;2175;51.018;6.994;2022-12-18T02:00:54;-5.00;99.90
4324;DHT22;2175;51.018;6.994;2022-12-18T02:03:20;-5.00;99.90
4324;DHT22;2175;51.018;6.994;2022-12-18T02:05:52;-5.00;99.90
4324;DHT22;2175;51.018;6.994;2022-12-18T02:08:28;-5.10;99.90
4324;DHT22;2175;51.018;6.994;2022-12-18T02:11:15;-5.00;99.90
4324;DHT22;2175;51.018;6.994;2022-12-18T02:16:45;-5.20;99.90
4324;DHT22;2175;51.018;6.994;2022-12-18T02:25:13;-5.30;99.90
4324;DHT22;2175;51.018;6.994;2022-12-18T02:27:46;-5.30;99.90
4324;DHT22;2175;51.018;6.994;2022-12-18T02:30:12;-5.30;99.90
4324;DHT22;2175;51.018;6.994;2022-12-18T02:32:42;-5.30;99.90
4324;DHT22;2175;51.018;6.994;2022-12-18T02:35:15;-5.20;99.90
4324;DHT22;2175;51.018;6.994;2022-12-18T02:37:43;-5.30;99.90
4324;DHT22;2175;51.018;6.994;2022-12-18T02:40:11;-5.30;99.90
4324;DHT22;2175;51.018;6.994;2022-12-18T02:42:38;-5.30;99.90
4324;DHT22;2175;51.018;6.994;2022-12-18T02:45:04;-5.20;99.90
4324;DHT22;2175;51.018;6.994;2022-12-18T02:47:32;-5.20;99.90
4324;DHT22;2175;51.018;6.994;2022-12-18T02:58:10;-5.40;99.90
4324;DHT22;2175;51.018;6.994;2022-12-18T03:03:19;-5.40;99.90
4324;DHT22;2175;51.018;6.994;2022-12-18T03:06:02;-5.40;99.90
4324;DHT22;2175;51.018;6.994;2022-12-18T03:08:33;-5.40;99.90
4324;DHT22;2175;51.018;6.994;2022-12-18T03:11:04;-5.50;99.90
4324;DHT22;2175;51.018;6.994;2022-12-18T03:13:34;-5.60;99.90
4324;DHT22;2175;51.018;6.994;2022-12-18T03:16:02;-5.60;99.90
4324;DHT22;2175;51.018;6.994;2022-12-18T03:18:40;-5.60;99.90
4324;DHT22;2175;51.018;6.994;2022-12-18T03:21:09;-5.60;99.90
4324;DHT22;2175;51.018;6.994;2022-12-18T03:23:40;-5.60;99.90
4324;DHT22;2175;51.018;6.994;2022-12-18T03:26:13;-5.60;99.90
4324;DHT22;2175;51.018;6.994;2022-12-18T03:28:44;-5.60;99.90
4324;DHT22;2175;51.018;6.994;2022-12-18T03:31:12;-5.60;99.90
4324;DHT22;2175;51.018;6.994;2022-12-18T03:33:46;-5.60;99.90
4324;DHT22;2175;51.018;6.994;2022-12-18T03:36:12;-5.50;99.90
4324;DHT22;2175;51.018;6.994;2022-12-18T03:38:38;-5.50;99.90
4324;DHT22;2175;51.018;6.994;2022-12-18T03:43:49;-5.50;99.90
4324;DHT22;2175;51.018;6.994;2022-12-18T03:49:15;-5.60;99.90
4324;DHT22;2175;51.018;6.994;2022-12-18T03:51:59;-5.60;99.90
4324;DHT22;2175;51.018;6.994;2022-12-18T03:54:29;-5.60;99.90
4324;DHT22;2175;51.018;6.994;2022-12-18T03:57:09;-5.70;99.90
4324;DHT22;2175;51.018;6.994;2022-12-18T03:59:37;-5.60;99.90
4324;DHT22;2175;51.018;6.994;2022-12-18T04:02:05;-5.60;99.90
4324;DHT22;2175;51.018;6.994;2022-12-18T04:04:34;-5.70;99.90
4324;DHT22;2175;51.018;6.994;2022-12-18T04:07:01;-5.80;99.90
4324;DHT22;2175;51.018;6.994;2022-12-18T04:09:27;-5.80;99.90
4324;DHT22;2175;51.018;6.994;2022-12-18T04:11:53;-5.80;99.90
4324;DHT22;2175;51.018;6.994;2022-12-18T04:14:19;-5.70;99.90
4324;DHT22;2175;51.018;6.994;2022-12-18T04:16:44;-5.70;99.90
4324;DHT22;2175;51.018;6.994;2022-12-18T04:19:10;-5.60;99.90
4324;DHT22;2175;51.018;6.994;2022-12-18T04:21:36;-5.60;99.90
4324;DHT22;2175;51.018;6.994;2022-12-18T04:24:01;-5.60;99.90
4324;DHT22;2175;51.018;6.994;2022-12-18T04:26:27;-5.70;99.90
4324;DHT22;2175;51.018;6.994;2022-12-18T04:28:52;-5.60;99.90
4324;DHT22;2175;51.018;6.994;2022-12-18T04:31:18;-5.70;99.90
4324;DHT22;2175;51.018;6.994;2022-12-18T04:33:44;-5.70;99.90
4324;DHT22;2175;51.018;6.994;2022-12-18T04:36:09;-5.70;99.90
4324;DHT22;2175;51.018;6.994;2022-12-18T04:38:35;-5.70;99.90
4324;DHT22;2175;51.018;6.994;2022-12-18T04:41:00;-5.70;99.90
4324;DHT22;2175;51.018;6.994;2022-12-18T04:43:26;-5.70;99.90
4324;DHT22;2175;51.018;6.994;2022-12-18T04:45:52;-5.70;99.90
4324;DHT22;2175;51.018;6.994;2022-12-18T04:48:17;-5.70;99.90
4324;DHT22;2175;51.018;6.994;2022-12-18T04:50:43;-5.70;99.90
4324;DHT22;2175;51.018;6.994;2022-12-18T04:53:08;-5.70;99.90
4324;DHT22;2175;51.018;6.994;2022-12-18T04:55:34;-5.70;99.90
4324;DHT22;2175;51.018;6.994;2022-12-18T04:58:00;-5.70;99.90
4324;DHT22;2175;51.018;6.994;2022-12-18T05:00:25;-5.70;99.90
4324;DHT22;2175;51.018;6.994;2022-12-18T05:02:51;-5.60;99.90
4324;DHT22;2175;51.018;6.994;2022-12-18T05:05:17;-5.50;99.90
4324;DHT22;2175;51.018;6.994;2022-12-18T05:07:42;-5.60;99.90
4324;DHT22;2175;51.018;6.994;2022-12-18T05:10:08;-5.60;99.90
4324;DHT22;2175;51.018;6.994;2022-12-18T05:12:34;-5.50;99.90
4324;DHT22;2175;51.018;6.994;2022-12-18T05:15:19;-5.40;99.90
4324;DHT22;2175;51.018;6.994;2022-12-18T05:17:45;-5.40;99.90
4324;DHT22;2175;51.018;6.994;2022-12-18T05:20:10;-5.30;99.90
4324;DHT22;2175;51.018;6.994;2022-12-18T05:22:36;-5.30;99.90
4324;DHT22;2175;51.018;6.994;2022-12-18T05:25:02;-5.30;99.90
4324;DHT22;2175;51.018;6.994;2022-12-18T05:27:27;-5.40;99.90
4324;DHT22;2175;51.018;6.994;2022-12-18T05:29:53;-5.40;99.90
4324;DHT22;2175;51.018;6.994;2022-12-18T05:32:18;-5.40;99.90
4324;DHT22;2175;51.018;6.994;2022-12-18T05:34:44;-5.40;99.90
4324;DHT22;2175;51.018;6.994;2022-12-18T05:37:10;-5.40;99.90
4324;DHT22;2175;51.018;6.994;2022-12-18T05:39:35;-5.40;99.90
4324;DHT22;2175;51.018;6.994;2022-12-18T05:42:01;-5.50;99.90
4324;DHT22;2175;51.018;6.994;2022-12-18T05:44:26;-5.50;99.90
4324;DHT22;2175;51.018;6.994;2022-12-18T05:46:52;-5.50;99.90
4324;DHT22;2175;51.018;6.994;2022-12-18T05:49:17;-5.60;99.90
4324;DHT22;2175;51.018;6.994;2022-12-18T05:51:43;-5.70;99.90
4324;DHT22;2175;51.018;6.994;2022-12-18T05:54:08;-5.60;99.90
4324;DHT22;2175;51.018;6.994;2022-12-18T05:56:34;-5.50;99.90
4324;DHT22;2175;51.018;6.994;2022-12-18T05:59:00;-5.60;99.90
4324;DHT22;2175;51.018;6.994;2022-12-18T06:01:26;-5.60;99.90
4324;DHT22;2175;51.018;6.994;2022-12-18T06:03:52;-5.60;99.90
4324;DHT22;2175;51.018;6.994;2022-12-18T06:06:23;-5.60;99.90
4324;DHT22;2175;51.018;6.994;2022-12-18T06:08:50;-5.50;99.90
4324;DHT22;2175;51.018;6.994;2022-12-18T06:11:18;-5.40;99.90
4324;DHT22;2175;51.018;6.994;2022-12-18T06:13:44;-5.30;99.90
4324;DHT22;2175;51.018;6.994;2022-12-18T06:16:10;-5.30;99.90
4324;DHT22;2175;51.018;6.994;2022-12-18T06:18:35;-5.20;99.90
4324;DHT22;2175;51.018;6.994;2022-12-18T06:21:01;-5.20;99.90
4324;DHT22;2175;51.018;6.994;2022-12-18T06:23:27;-5.30;99.90
4324;DHT22;2175;51.018;6.994;2022-12-18T06:25:52;-5.20;99.90
4324;DHT22;2175;51.018;6.994;2022-12-18T06:28:18;-5.20;99.90
4324;DHT22;2175;51.018;6.994;2022-12-18T06:30:45;-5.20;99.90
4324;DHT22;2175;51.018;6.994;2022-12-18T06:33:10;-5.30;99.90
4324;DHT22;2175;51.018;6.994;2022-12-18T06:35:36;-5.20;99.90
4324;DHT22;2175;51.018;6.994;2022-12-18T06:38:02;-5.20;99.90
4324;DHT22;2175;51.018;6.994;2022-12-18T06:40:28;-5.20;99.90
4324;DHT22;2175;51.018;6.994;2022-12-18T06:42:54;-5.20;99.90
4324;DHT22;2175;51.018;6.994;2022-12-18T06:45:19;-5.30;99.90
4324;DHT22;2175;51.018;6.994;2022-12-18T06:47:45;-5.40;99.90
4324;DHT22;2175;51.018;6.994;2022-12-18T06:50:14;-5.40;99.90
4324;DHT22;2175;51.018;6.994;2022-12-18T06:52:43;-5.30;99.90
4324;DHT22;2175;51.018;6.994;2022-12-18T06:55:09;-5.50;99.90
4324;DHT22;2175;51.018;6.994;2022-12-18T06:57:35;-5.60;99.90
4324;DHT22;2175;51.018;6.994;2022-12-18T07:00:02;-5.60;99.90
4324;DHT22;2175;51.018;6.994;2022-12-18T07:02:28;-5.50;99.90
4324;DHT22;2175;51.018;6.994;2022-12-18T07:04:53;-5.40;99.90
4324;DHT22;2175;51.018;6.994;2022-12-18T07:07:19;-5.40;99.90
4324;DHT22;2175;51.018;6.994;2022-12-18T07:09:44;-5.40;99.90
4324;DHT22;2175;51.018;6.994;2022-12-18T07:12:10;-5.40;99.90
4324;DHT22;2175;51.018;6.994;2022-12-18T07:14:35;-5.30;99.90
4324;DHT22;2175;51.018;6.994;2022-12-18T07:17:01;-5.30;99.90
4324;DHT22;2175;51.018;6.994;2022-12-18T07:19:27;-5.40;99.90
4324;DHT22;2175;51.018;6.994;2022-12-18T07:21:52;-5.40;99.90
4324;DHT22;2175;51.018;6.994;2022-12-18T07:24:18;-5.50;99.90
4324;DHT22;2175;51.018;6.994;2022-12-18T07:26:46;-5.50;99.90
4324;DHT22;2175;51.018;6.994;2022-12-18T07:29:12;-5.50;99.90
4324;DHT22;2175;51.018;6.994;2022-12-18T07:31:37;-5.40;99.90
4324;DHT22;2175;51.018;6.994;2022-12-18T07:34:03;-5.50;99.90
4324;DHT22;2175;51.018;6.994;2022-12-18T07:36:29;-5.50;99.90
4324;DHT22;2175;51.018;6.994;2022-12-18T07:38:55;-5.60;99.90
4324;DHT22;2175;51.018;6.994;2022-12-18T07:41:21;-5.60;99.90
4324;DHT22;2175;51.018;6.994;2022-12-18T07:43:47;-5.60;99.90
4324;DHT22;2175;51.018;6.994;2022-12-18T07:46:14;-5.60;99.90
4324;DHT22;2175;51.018;6.994;2022-12-18T07:48:41;-5.60;99.90
4324;DHT22;2175;51.018;6.994;2022-12-18T07:51:08;-5.60;99.90
4324;DHT22;2175;51.018;6.994;2022-12-18T07:53:35;-5.60;99.90
4324;DHT22;2175;51.018;6.994;2022-12-18T07:56:04;-5.60;99.90
4324;DHT22;2175;51.018;6.994;2022-12-18T07:58:32;-5.50;99.90
4324;DHT22;2175;51.018;6.994;2022-12-18T08:01:10;-5.60;99.90
4324;DHT22;2175;51.018;6.994;2022-12-18T08:03:36;-5.50;99.90
4324;DHT22;2175;51.018;6.994;2022-12-18T08:06:04;-5.30;99.90
4324;DHT22;2175;51.018;6.994;2022-12-18T08:08:30;-5.30;99.90
4324;DHT22;2175;51.018;6.994;2022-12-18T08:10:56;-5.20;99.90
4324;DHT22;2175;51.018;6.994;2022-12-18T08:13:22;-5.20;99.90
4324;DHT22;2175;51.018;6.994;2022-12-18T08:15:59;-5.10;99.90
4324;DHT22;2175;51.018;6.994;2022-12-18T08:18:25;-5.00;99.90
4324;DHT22;2175;51.018;6.994;2022-12-18T08:20:51;-5.00;99.90
4324;DHT22;2175;51.018;6.994;2022-12-18T08:23:16;-4.90;99.90
4324;DHT22;2175;51.018;6.994;2022-12-18T08:25:42;-4.90;99.90
4324;DHT22;2175;51.018;6.994;2022-12-18T08:28:08;-4.90;99.90
4324;DHT22;2175;51.018;6.994;2022-12-18T08:30:33;-4.80;99.90
4324;DHT22;2175;51.018;6.994;2022-12-18T08:32:59;-4.70;99.90
4324;DHT22;2175;51.018;6.994;2022-12-18T08:35:24;-4.60;99.90
4324;DHT22;2175;51.018;6.994;2022-12-18T08:37:50;-4.60;99.90
4324;DHT22;2175;51.018;6.994;2022-12-18T08:40:16;-4.50;99.90
4324;DHT22;2175;51.018;6.994;2022-12-18T08:42:41;-4.40;99.90
4324;DHT22;2175;51.018;6.994;2022-12-18T08:45:26;-4.40;99.90
4324;DHT22;2175;51.018;6.994;2022-12-18T08:47:51;-4.30;99.90
4324;DHT22;2175;51.018;6.994;2022-12-18T08:50:17;-4.20;99.90
4324;DHT22;2175;51.018;6.994;2022-12-18T08:52:43;-4.10;99.90
4324;DHT22;2175;51.018;6.994;2022-12-18T08:55:09;-3.90;99.90
4324;DHT22;2175;51.018;6.994;2022-12-18T08:57:35;-3.80;99.90
4324;DHT22;2175;51.018;6.994;2022-12-18T09:00:00;-3.70;99.90
4324;DHT22;2175;51.018;6.994;2022-12-18T09:02:26;-3.60;99.90
4324;DHT22;2175;51.018;6.994;2022-12-18T09:04:52;-3.50;99.90
4324;DHT22;2175;51.018;6.994;2022-12-18T09:07:17;-3.50;99.90
4324;DHT22;2175;51.018;6.994;2022-12-18T09:09:43;-3.30;99.90
4324;DHT22;2175;51.018;6.994;2022-12-18T09:12:11;-3.10;99.90
4324;DHT22;2175;51.018;6.994;2022-12-18T09:14:37;-3.10;99.90
4324;DHT22;2175;51.018;6.994;2022-12-18T09:17:03;-3.00;99.90
4324;DHT22;2175;51.018;6.994;2022-12-18T09:19:28;-3.00;99.90
4324;DHT22;2175;51.018;6.994;2022-12-18T09:21:54;-3.00;99.90
4324;DHT22;2175;51.018;6.994;2022-12-18T09:24:20;-2.90;99.90
4324;DHT22;2175;51.018;6.994;2022-12-18T09:26:45;-2.80;99.90
4324;DHT22;2175;51.018;6.994;2022-12-18T09:29:11;-2.80;99.90
4324;DHT22;2175;51.018;6.994;2022-12-18T09:31:38;-2.80;99.90
4324;DHT22;2175;51.018;6.994;2022-12-18T09:34:05;-2.70;99.90
4324;DHT22;2175;51.018;6.994;2022-12-18T09:36:31;-2.60;99.90
4324;DHT22;2175;51.018;6.994;2022-12-18T09:38:59;-2.50;99.90
4324;DHT22;2175;51.018;6.994;2022-12-18T09:41:48;-2.50;99.90
4324;DHT22;2175;51.018;6.994;2022-12-18T09:44:28;-2.30;99.90
4324;DHT22;2175;51.018;6.994;2022-12-18T09:47:46;-2.20;99.90
4324;DHT22;2175;51.018;6.994;2022-12-18T09:49:56;-2.10;99.90
4324;DHT22;2175;51.018;6.994;2022-12-18T09:54:53;-2.00;99.90
4324;DHT22;2175;51.018;6.994;2022-12-18T09:57:22;-1.90;99.90
4324;DHT22;2175;51.018;6.994;2022-12-18T10:00:15;-1.80;99.90
4324;DHT22;2175;51.018;6.994;2022-12-18T10:02:41;-1.70;99.90
4324;DHT22;2175;51.018;6.994;2022-12-18T10:05:11;-1.70;99.90
4324;DHT22;2175;51.018;6.994;2022-12-18T10:07:59;-1.60;99.90
4324;DHT22;2175;51.018;6.994;2022-12-18T10:10:40;-1.60;99.90
4324;DHT22;2175;51.018;6.994;2022-12-18T10:13:53;-1.50;99.90
4324;DHT22;2175;51.018;6.994;2022-12-18T10:19:11;-1.30;99.90
4324;DHT22;2175;51.018;6.994;2022-12-18T10:21:58;-1.20;99.90
4324;DHT22;2175;51.018;6.994;2022-12-18T10:24:32;-1.10;99.90
4324;DHT22;2175;51.018;6.994;2022-12-18T10:27:24;-1.10;99.90
4324;DHT22;2175;51.018;6.994;2022-12-18T10:29:50;-1.00;99.90
4324;DHT22;2175;51.018;6.994;2022-12-18T10:32:19;-1.00;99.90
4324;DHT22;2175;51.018;6.994;2022-12-18T10:34:52;-0.80;99.90
4324;DHT22;2175;51.018;6.994;2022-12-18T10:37:20;-0.70;99.90
4324;DHT22;2175;51.018;6.994;2022-12-18T10:40:14;-0.70;99.90
4324;DHT22;2175;51.018;6.994;2022-12-18T10:42:40;-0.60;99.90
4324;DHT22;2175;51.018;6.994;2022-12-18T10:45:12;-0.60;99.90
4324;DHT22;2175;51.018;6.994;2022-12-18T10:47:46;-0.60;99.90
4324;DHT22;2175;51.018;6.994;2022-12-18T10:50:33;-0.50;99.90
4324;DHT22;2175;51.018;6.994;2022-12-18T10:53:01;-0.50;99.90
4324;DHT22;2175;51.018;6.994;2022-12-18T10:55:38;-0.40;99.90
4324;DHT22;2175;51.018;6.994;2022-12-18T10:58:27;-0.40;99.90
4324;DHT22;2175;51.018;6.994;2022-12-18T11:01:12;-0.30;99.90
4324;DHT22;2175;51.018;6.994;2022-12-18T11:03:45;-0.30;99.90
4324;DHT22;2175;51.018;6.994;2022-12-18T11:06:13;-0.30;99.90
4324;DHT22;2175;51.018;6.994;2022-12-18T11:08:41;-0.30;99.90
4324;DHT22;2175;51.018;6.994;2022-12-18T11:11:19;-0.30;99.90
4324;DHT22;2175;51.018;6.994;2022-12-18T11:14:02;-0.20;99.90
4324;DHT22;2175;51.018;6.994;2022-12-18T11:16:30;-0.20;99.90
4324;DHT22;2175;51.018;6.994;2022-12-18T11:21:55;-0.10;99.90
4324;DHT22;2175;51.018;6.994;2022-12-18T11:24:33;-0.10;99.90
4324;DHT22;2175;51.018;6.994;2022-12-18T11:27:16;-0.10;99.90
4324;DHT22;2175;51.018;6.994;2022-12-18T11:29:43;0.00;99.90
4324;DHT22;2175;51.018;6.994;2022-12-18T11:34:44;0.00;99.90
4324;DHT22;2175;51.018;6.994;2022-12-18T11:37:13;0.10;99.90
4324;DHT22;2175;51.018;6.994;2022-12-18T11:39:49;0.10;99.90
4324;DHT22;2175;51.018;6.994;2022-12-18T11:42:35;0.10;99.90
4324;DHT22;2175;51.018;6.994;2022-12-18T11:47:39;-0.10;99.90
4324;DHT22;2175;51.018;6.994;2022-12-18T11:50:14;0.00;99.90
4324;DHT22;2175;51.018;6.994;2022-12-18T11:52:41;0.10;99.90
4324;DHT22;2175;51.018;6.994;2022-12-18T11:55:19;0.00;99.90
4324;DHT22;2175;51.018;6.994;2022-12-18T12:00:53;0.00;99.90
4324;DHT22;2175;51.018;6.994;2022-12-18T12:03:39;0.10;99.90
4324;DHT22;2175;51.018;6.994;2022-12-18T12:09:18;0.10;99.90
4324;DHT22;2175;51.018;6.994;2022-12-18T12:14:46;0.10;99.90
4324;DHT22;2175;51.018;6.994;2022-12-18T12:17:32;0.00;99.90
4324;DHT22;2175;51.018;6.994;2022-12-18T12:23:01;0.00;99.90
4324;DHT22;2175;51.018;6.994;2022-12-18T12:25:49;0.00;99.90
4324;DHT22;2175;51.018;6.994;2022-12-18T12:31:07;0.00;99.90
4324;DHT22;2175;51.018;6.994;2022-12-18T12:33:57;0.00;99.90
4324;DHT22;2175;51.018;6.994;2022-12-18T12:39:11;0.00;99.90
4324;DHT22;2175;51.018;6.994;2022-12-18T12:41:40;0.00;99.90
4324;DHT22;2175;51.018;6.994;2022-12-18T12:44:39;0.00;99.90
4324;DHT22;2175;51.018;6.994;2022-12-18T12:47:35;0.10;99.90
4324;DHT22;2175;51.018;6.994;2022-12-18T12:50:06;0.00;99.90
4324;DHT22;2175;51.018;6.994;2022-12-18T12:52:44;-0.10;99.90
4324;DHT22;2175;51.018;6.994;2022-12-18T12:55:22;-0.20;99.90
4324;DHT22;2175;51.018;6.994;2022-12-18T13:00:21;-0.20;99.90
4324;DHT22;2175;51.018;6.994;2022-12-18T13:03:07;-0.20;99.90
4324;DHT22;2175;51.018;6.994;2022-12-18T13:05:44;-0.20;99.90
4324;DHT22;2175;51.018;6.994;2022-12-18T13:08:23;-0.30;99.90
4324;DHT22;2175;51.018;6.994;2022-12-18T13:10:49;-0.10;99.90
4324;DHT22;2175;51.018;6.994;2022-12-18T13:13:52;-0.20;99.90
4324;DHT22;2175;51.018;6.994;2022-12-18T13:16:21;-0.20;99.90
4324;DHT22;2175;51.018;6.994;2022-12-18T13:18:55;-0.20;99.90
4324;DHT22;2175;51.018;6.994;2022-12-18T13:21:27;-0.20;99.90
4324;DHT22;2175;51.018;6.994;2022-12-18T13:23:54;-0.20;99.90
4324;DHT22;2175;51.018;6.994;2022-12-18T13:28:53;-0.30;99.90
4324;DHT22;2175;51.018;6.994;2022-12-18T13:34:23;-0.30;99.90
4324;DHT22;2175;51.018;6.994;2022-12-18T13:36:50;-0.20;99.90
4324;DHT22;2175;51.018;6.994;2022-12-18T13:41:51;-0.30;99.90
4324;DHT22;2175;51.018;6.994;2022-12-18T13:44:37;-0.30;99.90
4324;DHT22;2175;51.018;6.994;2022-12-18T13:47:25;-0.20;99.90
4324;DHT22;2175;51.018;6.994;2022-12-18T13:49:51;-0.30;99.90
4324;DHT22;2175;51.018;6.994;2022-12-18T13:52:28;-0.40;99.90
4324;DHT22;2175;51.018;6.994;2022-12-18T13:54:59;-0.40;99.90
4324;DHT22;2175;51.018;6.994;2022-12-18T13:59:53;-0.30;99.90
4324;DHT22;2175;51.018;6.994;2022-12-18T14:02:25;-0.30;99.90
4324;DHT22;2175;51.018;6.994;2022-12-18T14:04:52;-0.40;99.90
4324;DHT22;2175;51.018;6.994;2022-12-18T14:07:28;-0.40;99.90
4324;DHT22;2175;51.018;6.994;2022-12-18T14:09:56;-0.40;99.90
4324;DHT22;2175;51.018;6.994;2022-12-18T14:12:30;-0.40;99.90
4324;DHT22;2175;51.018;6.994;2022-12-18T14:17:58;-0.40;99.90
4324;DHT22;2175;51.018;6.994;2022-12-18T14:20:26;-0.40;99.90
4324;DHT22;2175;51.018;6.994;2022-12-18T14:22:52;-0.40;99.90
4324;DHT22;2175;51.018;6.994;2022-12-18T14:25:20;-0.50;99.90
4324;DHT22;2175;51.018;6.994;2022-12-18T14:30:43;-0.50;99.90
4324;DHT22;2175;51.018;6.994;2022-12-18T14:35:38;-0.50;99.90
4324;DHT22;2175;51.018;6.994;2022-12-18T14:38:38;-0.50;99.90
4324;DHT22;2175;51.018;6.994;2022-12-18T14:41:09;-0.50;99.90
4324;DHT22;2175;51.018;6.994;2022-12-18T14:43:36;-0.40;99.90
4324;DHT22;2175;51.018;6.994;2022-12-18T14:48:48;-0.50;99.90
4324;DHT22;2175;51.018;6.994;2022-12-18T14:51:24;-0.50;99.90
4324;DHT22;2175;51.018;6.994;2022-12-18T14:56:23;-0.50;99.90
4324;DHT22;2175;51.018;6.994;2022-12-18T14:58:58;-0.50;99.90
4324;DHT22;2175;51.018;6.994;2022-12-18T15:01:28;-0.50;99.90
4324;DHT22;2175;51.018;6.994;2022-12-18T15:03:54;-0.50;99.90
4324;DHT22;2175;51.018;6.994;2022-12-18T15:08:51;-0.60;99.90
4324;DHT22;2175;51.018;6.994;2022-12-18T15:16:59;-0.50;99.90
4324;DHT22;2175;51.018;6.994;2022-12-18T15:21:59;-0.60;99.90
4324;DHT22;2175;51.018;6.994;2022-12-18T15:24:30;-0.60;99.90
4324;DHT22;2175;51.018;6.994;2022-12-18T15:27:00;-0.60;99.90
4324;DHT22;2175;51.018;6.994;2022-12-18T15:29:34;-0.60;99.90
4324;DHT22;2175;51.018;6.994;2022-12-18T15:32:20;-0.70;99.90
4324;DHT22;2175;51.018;6.994;2022-12-18T15:34:45;-0.70;99.90
4324;DHT22;2175;51.018;6.994;2022-12-18T15:37:11;-0.60;99.90
4324;DHT22;2175;51.018;6.994;2022-12-18T15:39:37;-0.60;99.90
4324;DHT22;2175;51.018;6.994;2022-12-18T15:42:02;-0.60;99.90
4324;DHT22;2175;51.018;6.994;2022-12-18T15:44:47;-0.60;99.90
4324;DHT22;2175;51.018;6.994;2022-12-18T15:47:13;-0.70;99.90
4324;DHT22;2175;51.018;6.994;2022-12-18T15:49:40;-0.60;99.90
4324;DHT22;2175;51.018;6.994;2022-12-18T15:52:07;-0.70;99.90
4324;DHT22;2175;51.018;6.994;2022-12-18T15:54:34;-0.70;99.90
4324;DHT22;2175;51.018;6.994;2022-12-18T15:57:18;-0.80;99.90
4324;DHT22;2175;51.018;6.994;2022-12-18T15:59:56;-0.80;99.90
4324;DHT22;2175;51.018;6.994;2022-12-18T16:02:24;-0.80;99.90
4324;DHT22;2175;51.018;6.994;2022-12-18T16:04:51;-0.80;99.90
4324;DHT22;2175;51.018;6.994;2022-12-18T16:07:17;-0.80;99.90
4324;DHT22;2175;51.018;6.994;2022-12-18T16:09:43;-0.90;99.90
4324;DHT22;2175;51.018;6.994;2022-12-18T16:12:21;-0.80;99.90
4324;DHT22;2175;51.018;6.994;2022-12-18T16:14:47;-0.80;99.90
4324;DHT22;2175;51.018;6.994;2022-12-18T16:17:14;-0.80;99.90
4324;DHT22;2175;51.018;6.994;2022-12-18T16:19:40;-0.80;99.90
4324;DHT22;2175;51.018;6.994;2022-12-18T16:22:08;-0.80;99.90
4324;DHT22;2175;51.018;6.994;2022-12-18T16:24:38;-0.90;99.90
4324;DHT22;2175;51.018;6.994;2022-12-18T16:27:05;-0.90;99.90
4324;DHT22;2175;51.018;6.994;2022-12-18T16:29:31;-0.90;99.90
4324;DHT22;2175;51.018;6.994;2022-12-18T16:31:58;-1.00;99.90
4324;DHT22;2175;51.018;6.994;2022-12-18T16:34:32;-0.90;99.90
4324;DHT22;2175;51.018;6.994;2022-12-18T16:37:05;-0.90;99.90
4324;DHT22;2175;51.018;6.994;2022-12-18T16:39:32;-0.90;99.90
4324;DHT22;2175;51.018;6.994;2022-12-18T16:41:59;-1.00;99.90
4324;DHT22;2175;51.018;6.994;2022-12-18T16:44:27;-1.00;99.90
4324;DHT22;2175;51.018;6.994;2022-12-18T16:46:53;-0.90;99.90
4324;DHT22;2175;51.018;6.994;2022-12-18T16:49:19;-0.90;99.90
4324;DHT22;2175;51.018;6.994;2022-12-18T16:51:47;-1.00;99.90
4324;DHT22;2175;51.018;6.994;2022-12-18T16:54:13;-1.00;99.90
4324;DHT22;2175;51.018;6.994;2022-12-18T16:56:38;-1.00;99.90
4324;DHT22;2175;51.018;6.994;2022-12-18T16:59:04;-1.00;99.90
4324;DHT22;2175;51.018;6.994;2022-12-18T17:01:31;-1.00;99.90
4324;DHT22;2175;51.018;6.994;2022-12-18T17:03:58;-1.00;99.90
4324;DHT22;2175;51.018;6.994;2022-12-18T17:06:25;-1.00;99.90
4324;DHT22;2175;51.018;6.994;2022-12-18T17:09:03;-1.00;99.90
4324;DHT22;2175;51.018;6.994;2022-12-18T17:11:31;-1.00;99.90
4324;DHT22;2175;51.018;6.994;2022-12-18T17:13:57;-1.10;99.90
4324;DHT22;2175;51.018;6.994;2022-12-18T17:16:23;-1.10;99.90
4324;DHT22;2175;51.018;6.994;2022-12-18T17:18:51;-1.20;99.90
4324;DHT22;2175;51.018;6.994;2022-12-18T17:21:17;-1.20;99.90
4324;DHT22;2175;51.018;6.994;2022-12-18T17:23:43;-1.20;99.90
4324;DHT22;2175;51.018;6.994;2022-12-18T17:26:10;-1.10;99.90
4324;DHT22;2175;51.018;6.994;2022-12-18T17:28:37;-1.20;99.90
4324;DHT22;2175;51.018;6.994;2022-12-18T17:31:17;-1.20;99.90
4324;DHT22;2175;51.018;6.994;2022-12-18T17:33:43;-1.20;99.90
4324;DHT22;2175;51.018;6.994;2022-12-18T17:36:09;-1.20;99.90
4324;DHT22;2175;51.018;6.994;2022-12-18T17:38:36;-1.20;99.90
4324;DHT22;2175;51.018;6.994;2022-12-18T17:41:06;-1.20;99.90
4324;DHT22;2175;51.018;6.994;2022-12-18T17:43:32;-1.20;99.90
4324;DHT22;2175;51.018;6.994;2022-12-18T17:46:06;-1.20;99.90
4324;DHT22;2175;51.018;6.994;2022-12-18T17:48:32;-1.20;99.90
4324;DHT22;2175;51.018;6.994;2022-12-18T17:51:02;-1.20;99.90
4324;DHT22;2175;51.018;6.994;2022-12-18T17:53:28;-1.20;99.90